Etusivu
METAR-TAF:

METAR-TAF

Lentoasemat :

Little Rock National Airport (Adams Field)

Little Rock, Arkansas, Yhdysvallat

Leveyspiiri: 34-43-36N, Pituuspiiri: 092-14-10W, korkeus merenpinnasta: 79 m

Tämänhetkinen sää

Tämä raportti tehtiin 25 minuuttia sitten, kello 05.53 UTC
tyyntä
Lämpötila 24°C
Kosteus 89%
Ilmanpaine 1016 hPa
Näkyvyys: 16.1 km
selkeää

METAR: KLIT 170553Z 00000KT 10SM CLR 24/22 A3001 RMK AO2 SLP160 T02440222 10306 20244 403500217 58001

Aika: 01:18 (06:18 UTC)

Sääennuste

Tämä raportti tehtiin 58 minuuttia sitten, kello 05.20 UTC
Ennuste voimassa 17. päivästä klo 06 UTC - 18. päivään klo 06 UTC
Tuuli 5 kn eri suunnista
Näkyvyys: 10 km
selkeää
From 17. päivästä klo 1500 UTC
Tuuli 6 kn idästä/kaakosta
Näkyvyys: 10 km
selkeää

TAF: KLIT 170520Z 1706/1806 VRB05KT P6SM SKC FM171500 11006KT P6SM SKC

Säähavainnot ja -ennusteet yli 4000 lentoasemalta (METAR- ja TAF-raportit).

Käytössä olevat sääasemat on merkitty karttaan keltaisilla ja punaisilla pisteillä.

Aseta hiiri pisteen päälle nähdäksesi sääaseman nimen.

Klikkaa sitten nähdäksesi säähavainnot ja -ennusteet.

Kartan vaihtaminen: klikkaa mustalla rastilla varustettuja vihreitä pisteitä, niin voit zoomata sisään; viivalla varustettua vihreää pistettä, niin voit zoomata ulos tai vihreitä nuolia, niin pääset viereisille kartoille.


METAR-TAF: